sensor_id;sensor_type;location;lat;lon;timestamp;temperature;humidity
19646;DHT22;9971;52.446;13.452;2023-02-26T00:03:31;3.30;99.90
19646;DHT22;9971;52.446;13.452;2023-02-26T00:08:34;3.30;99.90
19646;DHT22;9971;52.446;13.452;2023-02-26T00:13:36;3.20;99.90
19646;DHT22;9971;52.446;13.452;2023-02-26T00:18:38;3.20;99.90
19646;DHT22;9971;52.446;13.452;2023-02-26T00:23:40;3.30;99.90
19646;DHT22;9971;52.446;13.452;2023-02-26T00:28:43;3.30;99.90
19646;DHT22;9971;52.446;13.452;2023-02-26T00:33:45;3.30;99.90
19646;DHT22;9971;52.446;13.452;2023-02-26T00:38:54;3.40;99.90
19646;DHT22;9971;52.446;13.452;2023-02-26T00:43:51;3.40;99.90
19646;DHT22;9971;52.446;13.452;2023-02-26T00:48:54;3.40;99.90
19646;DHT22;9971;52.446;13.452;2023-02-26T00:54:17;3.50;99.90
19646;DHT22;9971;52.446;13.452;2023-02-26T00:59:16;3.50;99.90
19646;DHT22;9971;52.446;13.452;2023-02-26T01:04:19;3.50;99.90
19646;DHT22;9971;52.446;13.452;2023-02-26T01:09:25;3.50;99.90
19646;DHT22;9971;52.446;13.452;2023-02-26T01:14:27;3.50;99.90
19646;DHT22;9971;52.446;13.452;2023-02-26T01:19:31;3.50;99.90
19646;DHT22;9971;52.446;13.452;2023-02-26T01:24:31;3.50;99.90
19646;DHT22;9971;52.446;13.452;2023-02-26T01:29:33;3.60;99.90
19646;DHT22;9971;52.446;13.452;2023-02-26T01:34:46;3.60;99.90
19646;DHT22;9971;52.446;13.452;2023-02-26T01:39:55;3.60;99.90
19646;DHT22;9971;52.446;13.452;2023-02-26T01:45:02;3.60;99.90
19646;DHT22;9971;52.446;13.452;2023-02-26T01:50:15;3.60;99.90
19646;DHT22;9971;52.446;13.452;2023-02-26T01:55:20;3.60;99.90
19646;DHT22;9971;52.446;13.452;2023-02-26T02:00:21;3.60;99.90
19646;DHT22;9971;52.446;13.452;2023-02-26T02:05:28;3.60;99.90
19646;DHT22;9971;52.446;13.452;2023-02-26T02:10:29;3.60;99.90
19646;DHT22;9971;52.446;13.452;2023-02-26T02:15:44;3.60;99.90
19646;DHT22;9971;52.446;13.452;2023-02-26T02:21:08;3.60;99.90
19646;DHT22;9971;52.446;13.452;2023-02-26T02:26:18;3.60;99.90
19646;DHT22;9971;52.446;13.452;2023-02-26T02:31:21;3.70;99.90
19646;DHT22;9971;52.446;13.452;2023-02-26T02:36:36;3.70;99.90
19646;DHT22;9971;52.446;13.452;2023-02-26T02:41:41;3.60;99.90
19646;DHT22;9971;52.446;13.452;2023-02-26T02:46:42;3.70;99.90
19646;DHT22;9971;52.446;13.452;2023-02-26T02:51:46;3.70;99.90
19646;DHT22;9971;52.446;13.452;2023-02-26T02:56:47;3.70;99.90
19646;DHT22;9971;52.446;13.452;2023-02-26T03:01:51;3.70;99.90
19646;DHT22;9971;52.446;13.452;2023-02-26T03:06:51;3.70;99.90
19646;DHT22;9971;52.446;13.452;2023-02-26T03:11:54;3.60;99.90
19646;DHT22;9971;52.446;13.452;2023-02-26T03:22:19;3.60;99.90
19646;DHT22;9971;52.446;13.452;2023-02-26T03:27:36;3.60;99.90
19646;DHT22;9971;52.446;13.452;2023-02-26T03:32:45;3.60;99.90
19646;DHT22;9971;52.446;13.452;2023-02-26T03:37:45;3.60;99.90
19646;DHT22;9971;52.446;13.452;2023-02-26T03:42:49;3.60;99.90
19646;DHT22;9971;52.446;13.452;2023-02-26T03:47:49;3.60;99.90
19646;DHT22;9971;52.446;13.452;2023-02-26T03:52:50;3.50;99.90
19646;DHT22;9971;52.446;13.452;2023-02-26T03:57:53;3.50;99.90
19646;DHT22;9971;52.446;13.452;2023-02-26T04:02:58;3.60;99.90
19646;DHT22;9971;52.446;13.452;2023-02-26T04:07:57;3.60;99.90
19646;DHT22;9971;52.446;13.452;2023-02-26T04:12:59;3.50;99.90
19646;DHT22;9971;52.446;13.452;2023-02-26T04:18:01;3.50;99.90
19646;DHT22;9971;52.446;13.452;2023-02-26T04:23:03;3.50;99.90
19646;DHT22;9971;52.446;13.452;2023-02-26T04:28:06;3.60;99.90
19646;DHT22;9971;52.446;13.452;2023-02-26T04:33:08;3.60;99.90
19646;DHT22;9971;52.446;13.452;2023-02-26T04:38:11;3.60;99.90
19646;DHT22;9971;52.446;13.452;2023-02-26T04:43:13;3.60;99.90
19646;DHT22;9971;52.446;13.452;2023-02-26T04:48:15;3.60;99.90
19646;DHT22;9971;52.446;13.452;2023-02-26T04:53:18;3.60;99.90
19646;DHT22;9971;52.446;13.452;2023-02-26T04:58:20;3.60;99.90
19646;DHT22;9971;52.446;13.452;2023-02-26T05:03:23;3.70;99.90
19646;DHT22;9971;52.446;13.452;2023-02-26T05:08:25;3.60;99.90
19646;DHT22;9971;52.446;13.452;2023-02-26T05:13:28;3.70;99.90
19646;DHT22;9971;52.446;13.452;2023-02-26T05:18:30;3.60;99.90
19646;DHT22;9971;52.446;13.452;2023-02-26T05:23:32;3.70;99.90
19646;DHT22;9971;52.446;13.452;2023-02-26T05:28:34;3.60;99.90
19646;DHT22;9971;52.446;13.452;2023-02-26T05:33:36;3.70;99.90
19646;DHT22;9971;52.446;13.452;2023-02-26T05:38:39;3.70;99.90
19646;DHT22;9971;52.446;13.452;2023-02-26T05:43:41;3.70;99.90
19646;DHT22;9971;52.446;13.452;2023-02-26T05:48:43;3.70;99.90
19646;DHT22;9971;52.446;13.452;2023-02-26T05:53:46;3.70;99.90
19646;DHT22;9971;52.446;13.452;2023-02-26T05:58:48;3.80;99.90
19646;DHT22;9971;52.446;13.452;2023-02-26T06:03:51;3.80;99.90
19646;DHT22;9971;52.446;13.452;2023-02-26T06:08:54;3.80;99.90
19646;DHT22;9971;52.446;13.452;2023-02-26T06:13:57;3.80;99.90
19646;DHT22;9971;52.446;13.452;2023-02-26T06:18:59;3.80;99.90
19646;DHT22;9971;52.446;13.452;2023-02-26T06:24:02;3.80;99.90
19646;DHT22;9971;52.446;13.452;2023-02-26T06:29:04;3.90;99.90
19646;DHT22;9971;52.446;13.452;2023-02-26T06:34:06;4.00;99.90
19646;DHT22;9971;52.446;13.452;2023-02-26T06:39:09;4.70;99.90
19646;DHT22;9971;52.446;13.452;2023-02-26T06:44:11;5.40;99.90
19646;DHT22;9971;52.446;13.452;2023-02-26T06:49:13;6.10;99.90
19646;DHT22;9971;52.446;13.452;2023-02-26T06:54:16;6.70;99.90
19646;DHT22;9971;52.446;13.452;2023-02-26T06:59:19;7.30;99.90
19646;DHT22;9971;52.446;13.452;2023-02-26T07:04:21;7.70;99.90
19646;DHT22;9971;52.446;13.452;2023-02-26T07:09:23;8.20;99.90
19646;DHT22;9971;52.446;13.452;2023-02-26T07:14:26;8.50;99.90
19646;DHT22;9971;52.446;13.452;2023-02-26T07:19:28;8.80;99.90
19646;DHT22;9971;52.446;13.452;2023-02-26T07:24:30;9.10;99.90
19646;DHT22;9971;52.446;13.452;2023-02-26T07:29:33;9.40;99.90
19646;DHT22;9971;52.446;13.452;2023-02-26T07:34:35;9.60;99.90
19646;DHT22;9971;52.446;13.452;2023-02-26T07:39:37;9.80;99.90
19646;DHT22;9971;52.446;13.452;2023-02-26T07:44:40;10.00;99.90
19646;DHT22;9971;52.446;13.452;2023-02-26T07:49:43;10.10;99.90
19646;DHT22;9971;52.446;13.452;2023-02-26T07:54:45;10.30;99.90
19646;DHT22;9971;52.446;13.452;2023-02-26T07:59:47;10.40;99.90
19646;DHT22;9971;52.446;13.452;2023-02-26T08:04:50;10.60;99.90
19646;DHT22;9971;52.446;13.452;2023-02-26T08:09:52;10.70;99.90
19646;DHT22;9971;52.446;13.452;2023-02-26T08:14:55;10.80;99.90
19646;DHT22;9971;52.446;13.452;2023-02-26T08:19:57;10.80;99.90
19646;DHT22;9971;52.446;13.452;2023-02-26T08:25:00;10.90;99.90
19646;DHT22;9971;52.446;13.452;2023-02-26T08:30:03;11.00;99.90
19646;DHT22;9971;52.446;13.452;2023-02-26T08:35:05;11.10;99.90
19646;DHT22;9971;52.446;13.452;2023-02-26T08:40:08;11.10;99.60
19646;DHT22;9971;52.446;13.452;2023-02-26T08:45:10;11.10;99.40
19646;DHT22;9971;52.446;13.452;2023-02-26T08:50:12;11.20;99.00
19646;DHT22;9971;52.446;13.452;2023-02-26T08:55:15;11.20;99.10
19646;DHT22;9971;52.446;13.452;2023-02-26T09:00:17;11.30;99.90
19646;DHT22;9971;52.446;13.452;2023-02-26T09:05:20;11.40;99.90
19646;DHT22;9971;52.446;13.452;2023-02-26T09:10:22;11.60;99.90
19646;DHT22;9971;52.446;13.452;2023-02-26T09:15:25;11.70;98.80
19646;DHT22;9971;52.446;13.452;2023-02-26T09:20:27;11.70;97.50
19646;DHT22;9971;52.446;13.452;2023-02-26T09:25:29;11.80;97.20
19646;DHT22;9971;52.446;13.452;2023-02-26T09:30:31;11.80;96.60
19646;DHT22;9971;52.446;13.452;2023-02-26T09:35:34;11.90;97.20
19646;DHT22;9971;52.446;13.452;2023-02-26T09:40:49;12.00;97.50
19646;DHT22;9971;52.446;13.452;2023-02-26T09:45:49;12.10;96.30
19646;DHT22;9971;52.446;13.452;2023-02-26T09:50:52;12.20;95.30
19646;DHT22;9971;52.446;13.452;2023-02-26T09:55:54;12.20;94.50
19646;DHT22;9971;52.446;13.452;2023-02-26T10:01:15;12.20;94.40
19646;DHT22;9971;52.446;13.452;2023-02-26T10:06:17;12.20;93.80
19646;DHT22;9971;52.446;13.452;2023-02-26T10:11:28;12.20;94.10
19646;DHT22;9971;52.446;13.452;2023-02-26T10:16:32;12.20;93.30
19646;DHT22;9971;52.446;13.452;2023-02-26T10:21:36;12.20;93.80
19646;DHT22;9971;52.446;13.452;2023-02-26T10:26:44;12.30;94.90
19646;DHT22;9971;52.446;13.452;2023-02-26T10:31:54;12.40;95.80
19646;DHT22;9971;52.446;13.452;2023-02-26T10:36:57;12.50;95.00
19646;DHT22;9971;52.446;13.452;2023-02-26T10:41:58;12.60;94.40
19646;DHT22;9971;52.446;13.452;2023-02-26T10:47:07;12.70;94.50
19646;DHT22;9971;52.446;13.452;2023-02-26T10:52:18;12.70;94.50
19646;DHT22;9971;52.446;13.452;2023-02-26T10:57:25;12.80;95.20
19646;DHT22;9971;52.446;13.452;2023-02-26T11:07:35;12.90;93.20
19646;DHT22;9971;52.446;13.452;2023-02-26T11:12:36;13.00;93.40
19646;DHT22;9971;52.446;13.452;2023-02-26T11:17:38;13.10;93.70
19646;DHT22;9971;52.446;13.452;2023-02-26T11:22:43;13.10;94.50
19646;DHT22;9971;52.446;13.452;2023-02-26T11:27:42;13.20;93.20
19646;DHT22;9971;52.446;13.452;2023-02-26T11:32:45;13.20;93.50
19646;DHT22;9971;52.446;13.452;2023-02-26T11:37:48;13.30;93.20
19646;DHT22;9971;52.446;13.452;2023-02-26T11:42:52;13.40;92.50
19646;DHT22;9971;52.446;13.452;2023-02-26T11:48:03;13.40;90.40
19646;DHT22;9971;52.446;13.452;2023-02-26T11:53:04;13.50;90.60
19646;DHT22;9971;52.446;13.452;2023-02-26T11:58:14;13.50;90.80
19646;DHT22;9971;52.446;13.452;2023-02-26T12:03:14;13.60;90.30
19646;DHT22;9971;52.446;13.452;2023-02-26T12:08:15;13.60;89.30
19646;DHT22;9971;52.446;13.452;2023-02-26T12:13:25;13.60;87.00
19646;DHT22;9971;52.446;13.452;2023-02-26T12:18:34;13.60;89.20
19646;DHT22;9971;52.446;13.452;2023-02-26T12:29:05;13.80;90.90
19646;DHT22;9971;52.446;13.452;2023-02-26T12:34:12;13.90;85.50
19646;DHT22;9971;52.446;13.452;2023-02-26T12:39:51;13.90;87.00
19646;DHT22;9971;52.446;13.452;2023-02-26T12:45:32;14.00;90.20
19646;DHT22;9971;52.446;13.452;2023-02-26T12:50:20;14.10;91.00
19646;DHT22;9971;52.446;13.452;2023-02-26T12:55:27;14.20;91.20
19646;DHT22;9971;52.446;13.452;2023-02-26T13:00:34;14.20;88.50
19646;DHT22;9971;52.446;13.452;2023-02-26T13:10:51;14.20;77.80
19646;DHT22;9971;52.446;13.452;2023-02-26T13:16:08;14.30;77.30
19646;DHT22;9971;52.446;13.452;2023-02-26T13:21:12;14.30;78.90
19646;DHT22;9971;52.446;13.452;2023-02-26T13:26:12;14.40;79.60
19646;DHT22;9971;52.446;13.452;2023-02-26T13:31:32;14.40;80.30
19646;DHT22;9971;52.446;13.452;2023-02-26T13:36:33;14.50;78.40
19646;DHT22;9971;52.446;13.452;2023-02-26T13:41:41;14.50;77.20
19646;DHT22;9971;52.446;13.452;2023-02-26T13:47:04;14.50;74.20
19646;DHT22;9971;52.446;13.452;2023-02-26T13:51:59;14.60;71.60
19646;DHT22;9971;52.446;13.452;2023-02-26T13:57:08;14.60;70.80
19646;DHT22;9971;52.446;13.452;2023-02-26T14:02:34;14.70;71.00
19646;DHT22;9971;52.446;13.452;2023-02-26T14:07:46;14.70;71.20
19646;DHT22;9971;52.446;13.452;2023-02-26T14:12:46;14.70;68.00
19646;DHT22;9971;52.446;13.452;2023-02-26T14:17:49;14.80;69.00
19646;DHT22;9971;52.446;13.452;2023-02-26T14:22:52;14.80;67.90
19646;DHT22;9971;52.446;13.452;2023-02-26T14:28:17;14.80;65.60
19646;DHT22;9971;52.446;13.452;2023-02-26T14:33:14;14.80;62.30
19646;DHT22;9971;52.446;13.452;2023-02-26T14:38:20;14.70;59.90
19646;DHT22;9971;52.446;13.452;2023-02-26T14:43:26;14.70;61.00
19646;DHT22;9971;52.446;13.452;2023-02-26T14:48:23;14.80;62.70
19646;DHT22;9971;52.446;13.452;2023-02-26T14:53:47;14.80;62.60
19646;DHT22;9971;52.446;13.452;2023-02-26T14:59:15;14.80;63.10
19646;DHT22;9971;52.446;13.452;2023-02-26T15:10:13;14.90;63.50
19646;DHT22;9971;52.446;13.452;2023-02-26T15:15:32;14.90;62.70
19646;DHT22;9971;52.446;13.452;2023-02-26T15:20:43;15.00;63.00
19646;DHT22;9971;52.446;13.452;2023-02-26T15:25:42;15.00;60.70
19646;DHT22;9971;52.446;13.452;2023-02-26T15:30:43;15.00;60.10
19646;DHT22;9971;52.446;13.452;2023-02-26T15:35:47;15.00;58.80
19646;DHT22;9971;52.446;13.452;2023-02-26T15:40:48;15.00;58.20
19646;DHT22;9971;52.446;13.452;2023-02-26T15:45:50;15.00;58.70
19646;DHT22;9971;52.446;13.452;2023-02-26T15:50:52;15.00;59.20
19646;DHT22;9971;52.446;13.452;2023-02-26T15:55:54;15.00;57.70
19646;DHT22;9971;52.446;13.452;2023-02-26T16:00:58;15.00;57.10
19646;DHT22;9971;52.446;13.452;2023-02-26T16:05:57;15.00;58.00
19646;DHT22;9971;52.446;13.452;2023-02-26T16:10:59;15.10;57.50
19646;DHT22;9971;52.446;13.452;2023-02-26T16:16:04;15.10;58.50
19646;DHT22;9971;52.446;13.452;2023-02-26T16:21:05;15.10;57.90
19646;DHT22;9971;52.446;13.452;2023-02-26T16:26:08;15.10;57.50
19646;DHT22;9971;52.446;13.452;2023-02-26T16:31:11;15.10;57.00
19646;DHT22;9971;52.446;13.452;2023-02-26T16:36:12;15.10;57.40
19646;DHT22;9971;52.446;13.452;2023-02-26T16:41:13;15.10;57.50
19646;DHT22;9971;52.446;13.452;2023-02-26T16:46:18;15.20;57.00
19646;DHT22;9971;52.446;13.452;2023-02-26T16:51:19;15.10;56.90
19646;DHT22;9971;52.446;13.452;2023-02-26T16:56:21;15.20;56.60
19646;DHT22;9971;52.446;13.452;2023-02-26T17:01:22;15.20;56.40
19646;DHT22;9971;52.446;13.452;2023-02-26T17:06:25;15.20;56.70
19646;DHT22;9971;52.446;13.452;2023-02-26T17:11:28;15.20;56.30
19646;DHT22;9971;52.446;13.452;2023-02-26T17:16:30;15.20;56.70
19646;DHT22;9971;52.446;13.452;2023-02-26T17:21:32;15.20;57.00
19646;DHT22;9971;52.446;13.452;2023-02-26T17:26:35;15.20;57.00
19646;DHT22;9971;52.446;13.452;2023-02-26T17:31:37;15.20;57.00
19646;DHT22;9971;52.446;13.452;2023-02-26T17:36:39;15.20;57.30
19646;DHT22;9971;52.446;13.452;2023-02-26T17:41:42;15.30;57.50
19646;DHT22;9971;52.446;13.452;2023-02-26T17:46:44;15.30;57.70
19646;DHT22;9971;52.446;13.452;2023-02-26T17:51:46;15.30;57.90
19646;DHT22;9971;52.446;13.452;2023-02-26T17:56:49;15.30;58.00
19646;DHT22;9971;52.446;13.452;2023-02-26T18:01:51;15.30;57.90
19646;DHT22;9971;52.446;13.452;2023-02-26T18:06:53;15.30;57.90
19646;DHT22;9971;52.446;13.452;2023-02-26T18:11:56;15.30;57.70
19646;DHT22;9971;52.446;13.452;2023-02-26T18:16:58;15.30;57.70
19646;DHT22;9971;52.446;13.452;2023-02-26T18:22:01;15.30;57.90
19646;DHT22;9971;52.446;13.452;2023-02-26T18:27:03;15.30;57.90
19646;DHT22;9971;52.446;13.452;2023-02-26T18:32:07;15.30;57.80
19646;DHT22;9971;52.446;13.452;2023-02-26T18:37:10;15.30;57.60
19646;DHT22;9971;52.446;13.452;2023-02-26T18:42:19;15.30;57.60
19646;DHT22;9971;52.446;13.452;2023-02-26T18:47:20;15.30;57.70
19646;DHT22;9971;52.446;13.452;2023-02-26T18:52:22;15.30;57.70
19646;DHT22;9971;52.446;13.452;2023-02-26T18:57:25;15.30;57.80
19646;DHT22;9971;52.446;13.452;2023-02-26T19:02:27;15.30;57.50
19646;DHT22;9971;52.446;13.452;2023-02-26T19:07:29;15.20;57.30
19646;DHT22;9971;52.446;13.452;2023-02-26T19:12:32;15.30;58.20
19646;DHT22;9971;52.446;13.452;2023-02-26T19:17:34;15.30;57.50
19646;DHT22;9971;52.446;13.452;2023-02-26T19:22:37;15.30;57.40
19646;DHT22;9971;52.446;13.452;2023-02-26T19:27:39;15.30;57.70
19646;DHT22;9971;52.446;13.452;2023-02-26T19:32:41;15.30;57.20
19646;DHT22;9971;52.446;13.452;2023-02-26T19:37:44;15.30;57.60
19646;DHT22;9971;52.446;13.452;2023-02-26T19:42:46;15.30;57.30
19646;DHT22;9971;52.446;13.452;2023-02-26T19:47:49;15.30;57.10
19646;DHT22;9971;52.446;13.452;2023-02-26T19:52:51;15.20;57.10
19646;DHT22;9971;52.446;13.452;2023-02-26T19:57:53;15.30;57.00
19646;DHT22;9971;52.446;13.452;2023-02-26T20:02:56;15.30;57.00
19646;DHT22;9971;52.446;13.452;2023-02-26T20:07:58;15.30;57.50
19646;DHT22;9971;52.446;13.452;2023-02-26T20:13:01;15.30;57.40
19646;DHT22;9971;52.446;13.452;2023-02-26T20:18:03;15.30;57.10
19646;DHT22;9971;52.446;13.452;2023-02-26T20:23:06;15.30;56.80
19646;DHT22;9971;52.446;13.452;2023-02-26T20:28:08;15.30;56.70
19646;DHT22;9971;52.446;13.452;2023-02-26T20:33:10;11.80;59.60
19646;DHT22;9971;52.446;13.452;2023-02-26T20:38:13;7.30;73.50
19646;DHT22;9971;52.446;13.452;2023-02-26T20:43:14;5.20;82.00
19646;DHT22;9971;52.446;13.452;2023-02-26T20:48:16;4.20;88.00
19646;DHT22;9971;52.446;13.452;2023-02-26T20:53:19;3.60;91.60
19646;DHT22;9971;52.446;13.452;2023-02-26T20:58:21;3.30;93.80
19646;DHT22;9971;52.446;13.452;2023-02-26T21:03:23;3.20;96.00
19646;DHT22;9971;52.446;13.452;2023-02-26T21:08:25;3.10;97.10
19646;DHT22;9971;52.446;13.452;2023-02-26T21:13:28;2.90;99.00
19646;DHT22;9971;52.446;13.452;2023-02-26T21:18:30;2.90;99.90
19646;DHT22;9971;52.446;13.452;2023-02-26T21:23:32;2.90;99.90
19646;DHT22;9971;52.446;13.452;2023-02-26T21:28:35;2.70;99.90
19646;DHT22;9971;52.446;13.452;2023-02-26T21:33:37;2.70;99.90
19646;DHT22;9971;52.446;13.452;2023-02-26T21:38:40;2.70;99.90
19646;DHT22;9971;52.446;13.452;2023-02-26T21:43:42;2.80;99.90
19646;DHT22;9971;52.446;13.452;2023-02-26T21:48:45;2.80;99.90
19646;DHT22;9971;52.446;13.452;2023-02-26T21:53:47;2.80;99.90
19646;DHT22;9971;52.446;13.452;2023-02-26T21:58:49;2.90;99.90
19646;DHT22;9971;52.446;13.452;2023-02-26T22:03:53;3.00;99.90
19646;DHT22;9971;52.446;13.452;2023-02-26T22:08:56;2.90;99.90
19646;DHT22;9971;52.446;13.452;2023-02-26T22:13:59;3.00;99.90
19646;DHT22;9971;52.446;13.452;2023-02-26T22:19:01;3.00;99.90
19646;DHT22;9971;52.446;13.452;2023-02-26T22:24:03;3.10;99.90
19646;DHT22;9971;52.446;13.452;2023-02-26T22:29:06;3.10;99.90
19646;DHT22;9971;52.446;13.452;2023-02-26T22:34:08;3.60;99.90
19646;DHT22;9971;52.446;13.452;2023-02-26T22:39:10;4.40;99.90
19646;DHT22;9971;52.446;13.452;2023-02-26T22:44:12;5.20;99.90
19646;DHT22;9971;52.446;13.452;2023-02-26T22:49:15;6.00;99.90
19646;DHT22;9971;52.446;13.452;2023-02-26T22:54:17;6.60;99.90
19646;DHT22;9971;52.446;13.452;2023-02-26T22:59:19;7.20;99.90
19646;DHT22;9971;52.446;13.452;2023-02-26T23:04:22;7.70;99.90
19646;DHT22;9971;52.446;13.452;2023-02-26T23:09:24;8.20;99.90
19646;DHT22;9971;52.446;13.452;2023-02-26T23:14:27;8.60;99.90
19646;DHT22;9971;52.446;13.452;2023-02-26T23:19:29;9.00;99.90
19646;DHT22;9971;52.446;13.452;2023-02-26T23:24:32;9.30;99.90
19646;DHT22;9971;52.446;13.452;2023-02-26T23:29:34;9.60;99.90
19646;DHT22;9971;52.446;13.452;2023-02-26T23:34:36;9.90;99.90
19646;DHT22;9971;52.446;13.452;2023-02-26T23:39:38;10.20;99.90
19646;DHT22;9971;52.446;13.452;2023-02-26T23:44:41;10.40;99.90
19646;DHT22;9971;52.446;13.452;2023-02-26T23:49:43;10.60;99.90
19646;DHT22;9971;52.446;13.452;2023-02-26T23:54:46;10.80;99.30
19646;DHT22;9971;52.446;13.452;2023-02-26T23:59:48;11.00;97.60
